Time;durP1;ratioP1;P1;durP2;ratioP2;P2;SDS_P1;SDS_P2;PMS_P1;PMS_P2;Temp;Humidity;BMP_temperature;BMP_pressure;BME280_temperature;BME280_humidity;BME280_pressure;Samples;Min_cycle;Max_cycle;Signal;HPM_P1;HPM_P2
2023/10/19 00:02:07;;;;;;;;;;;;;;;14.48;59.57;99137.06;4942878;29;19988;-76
2023/10/19 00:04:35;;;;;;;;;;;;;;;14.48;59.41;99132.44;4951441;28;19918;-76
2023/10/19 00:07:08;;;;;;;;;;;;;;;14.47;59.62;99132.75;4951754;29;19949;-76
2023/10/19 00:09:37;;;;;;;;;;;;;;;14.47;59.73;99135.47;4946007;28;19918;-76
2023/10/19 00:12:03;;;;;;;;;;;;;;;14.47;59.55;99132.75;4946064;29;19965;-79
2023/10/19 00:14:29;;;;;;;;;;;;;;;14.48;59.58;99127.00;4949904;28;19926;-76
2023/10/19 00:16:59;;;;;;;;;;;;;;;14.48;59.64;99131.63;4950309;29;19927;-75
2023/10/19 00:19:27;;;;;;;;;;;;;;;14.49;59.77;99120.47;4951650;29;20005;-76
2023/10/19 00:21:55;;;;;;;;;;;;;;;14.50;59.78;99126.72;4954462;29;19926;-76
2023/10/19 00:24:23;;;;;;;;;;;;;;;14.51;59.65;99131.00;4951670;29;19918;-76
2023/10/19 00:26:48;;;;;;;;;;;;;;;14.52;59.70;99129.91;4954571;29;19914;-75
2023/10/19 00:29:30;;;;;;;;;;;;;;;14.53;59.70;99128.84;4962395;28;20290;-77
2023/10/19 00:31:56;;;;;;;;;;;;;;;14.54;59.78;99124.19;4954649;29;19918;-73
2023/10/19 00:34:21;;;;;;;;;;;;;;;14.56;59.48;99125.50;4967165;28;19981;-75
2023/10/19 00:36:48;;;;;;;;;;;;;;;14.57;59.86;99127.13;4945830;28;19953;-74
2023/10/19 00:39:20;;;;;;;;;;;;;;;14.58;59.64;99130.63;4955495;28;19949;-74
2023/10/19 00:41:46;;;;;;;;;;;;;;;14.59;59.77;99132.22;4949622;29;19925;-73
2023/10/19 00:44:11;;;;;;;;;;;;;;;14.60;59.88;99134.66;4946735;29;19919;-74
2023/10/19 00:46:43;;;;;;;;;;;;;;;14.61;59.80;99130.00;4943222;28;20329;-74
2023/10/19 00:49:09;;;;;;;;;;;;;;;14.63;59.94;99135.94;4952123;29;19919;-74
2023/10/19 00:54:10;;;;;;;;;;;;;;;14.63;60.18;99127.78;4951185;29;19925;-74
2023/10/19 00:56:37;;;;;;;;;;;;;;;14.62;59.92;99121.56;4952332;29;19989;-75
2023/10/19 00:59:14;;;;;;;;;;;;;;;14.63;60.14;99119.63;4951956;28;20013;-75
2023/10/19 01:01:45;;;;;;;;;;;;;;;14.64;60.28;99119.34;4953597;29;20350;-75
2023/10/19 01:04:14;;;;;;;;;;;;;;;14.66;60.20;99121.72;4944534;28;19924;-75
2023/10/19 01:06:43;;;;;;;;;;;;;;;14.65;60.30;99120.94;4949426;28;19922;-75
2023/10/19 01:09:17;;;;;;;;;;;;;;;14.67;60.37;99124.16;4952482;29;19938;-76
2023/10/19 01:11:45;;;;;;;;;;;;;;;14.68;60.33;99117.59;4947390;29;20042;-75
2023/10/19 01:14:21;;;;;;;;;;;;;;;14.69;60.52;99116.50;4946877;29;19922;-75
2023/10/19 01:16:48;;;;;;;;;;;;;;;14.71;60.58;99110.72;4953289;28;19923;-75
2023/10/19 01:19:13;;;;;;;;;;;;;;;14.73;60.82;99124.03;4959821;28;20358;-75
2023/10/19 01:21:44;;;;;;;;;;;;;;;14.74;60.71;99120.19;4957265;28;19954;-75
2023/10/19 01:24:16;;;;;;;;;;;;;;;14.75;60.76;99117.16;4949234;29;19974;-75
2023/10/19 01:26:42;;;;;;;;;;;;;;;14.77;60.90;99117.66;4952031;29;19918;-75
2023/10/19 01:29:14;;;;;;;;;;;;;;;14.78;60.85;99121.19;4940040;29;19948;-75
2023/10/19 01:31:55;;;;;;;;;;;;;;;14.79;60.71;99120.88;4948899;28;19922;-75
2023/10/19 01:34:21;;;;;;;;;;;;;;;14.81;60.95;99115.13;4943917;29;19923;-75
2023/10/19 01:36:50;;;;;;;;;;;;;;;14.81;61.23;99113.19;4948211;28;19971;-75
2023/10/19 01:39:15;;;;;;;;;;;;;;;14.83;61.16;99123.75;4943327;29;19918;-75
2023/10/19 01:41:41;;;;;;;;;;;;;;;14.83;61.06;99119.13;4962951;28;19973;-75
2023/10/19 01:44:06;;;;;;;;;;;;;;;14.85;61.26;99121.53;4943702;29;19919;-74
2023/10/19 01:46:36;;;;;;;;;;;;;;;14.85;61.27;99107.94;4948376;29;20359;-75
2023/10/19 01:49:02;;;;;;;;;;;;;;;14.87;61.34;99122.03;4961774;28;19925;-73
2023/10/19 01:51:29;;;;;;;;;;;;;;;14.89;61.50;99114.34;4947973;29;20497;-75
2023/10/19 01:53:57;;;;;;;;;;;;;;;14.90;61.73;99124.13;4944230;28;19918;-75
2023/10/19 01:56:22;;;;;;;;;;;;;;;14.90;61.54;99124.94;4943915;28;19918;-75
2023/10/19 01:58:48;;;;;;;;;;;;;;;14.91;61.92;99118.38;4945689;29;19924;-75
2023/10/19 02:03:43;;;;;;;;;;;;;;;14.95;61.54;99126.72;4944844;28;19919;-75
2023/10/19 02:06:16;;;;;;;;;;;;;;;14.97;61.55;99123.69;4951759;29;19918;-75
2023/10/19 02:09:00;;;;;;;;;;;;;;;14.97;61.61;99123.69;4951935;29;20005;-75
2023/10/19 02:11:25;;;;;;;;;;;;;;;14.98;61.72;99123.38;4945570;29;19918;-75
2023/10/19 02:13:52;;;;;;;;;;;;;;;14.99;61.76;99116.81;4944030;29;20005;-75
2023/10/19 02:16:25;;;;;;;;;;;;;;;15.00;61.85;99115.72;4943820;29;19922;-75
2023/10/19 02:18:51;;;;;;;;;;;;;;;15.01;61.87;99117.31;4943939;29;20044;-75
2023/10/19 02:21:21;;;;;;;;;;;;;;;15.02;61.91;99109.94;4943321;28;20407;-78
2023/10/19 02:23:50;;;;;;;;;;;;;;;15.04;61.87;99116.69;4952236;29;19927;-74
2023/10/19 02:26:15;;;;;;;;;;;;;;;15.06;62.17;99117.16;4948619;28;20005;-75
2023/10/19 02:28:43;;;;;;;;;;;;;;;15.10;62.12;99120.88;4948580;28;20022;-75
2023/10/19 02:31:15;;;;;;;;;;;;;;;15.12;62.17;99117.88;4942809;28;19918;-75
2023/10/19 02:33:41;;;;;;;;;;;;;;;15.13;61.67;99108.56;4964671;28;19922;-75
2023/10/19 02:36:12;;;;;;;;;;;;;;;15.12;62.06;99121.38;4963293;28;19974;-75
2023/10/19 02:38:38;;;;;;;;;;;;;;;15.14;62.16;99115.59;4945194;29;20528;-75
2023/10/19 02:41:03;;;;;;;;;;;;;;;15.15;62.08;99112.59;4948253;29;20367;-76
2023/10/19 02:43:32;;;;;;;;;;;;;;;15.16;62.14;99118.81;4947752;28;19969;-75
2023/10/19 02:45:57;;;;;;;;;;;;;;;15.19;61.85;99115.47;4958735;28;19926;-75
2023/10/19 02:48:24;;;;;;;;;;;;;;;15.20;62.32;99117.09;4959486;28;20441;-74
2023/10/19 02:50:49;;;;;;;;;;;;;;;15.20;62.36;99108.94;4941515;29;19929;-76
2023/10/19 02:53:14;;;;;;;;;;;;;;;15.21;62.33;99110.53;4945740;29;20013;-75
2023/10/19 02:55:40;;;;;;;;;;;;;;;15.24;62.31;99112.63;4961952;28;19927;-75
2023/10/19 02:58:06;;;;;;;;;;;;;;;15.23;62.43;99113.75;4952344;28;19934;-74
2023/10/19 03:00:34;;;;;;;;;;;;;;;15.25;62.36;99110.72;4948805;29;19918;-74
2023/10/19 03:03:00;;;;;;;;;;;;;;;15.26;62.49;99107.66;4954672;28;19937;-75
2023/10/19 03:05:26;;;;;;;;;;;;;;;15.28;62.40;99107.38;4945557;29;19919;-74
2023/10/19 03:07:52;;;;;;;;;;;;;;;15.29;62.68;99106.25;4948384;29;19919;-73
2023/10/19 03:10:24;;;;;;;;;;;;;;;15.29;62.79;99106.25;4966451;28;19918;-75
2023/10/19 03:12:50;;;;;;;;;;;;;;;15.30;62.56;99100.50;4949171;29;19926;-74
2023/10/19 03:15:17;;;;;;;;;;;;;;;15.29;62.67;99100.78;4960749;28;19926;-74
2023/10/19 03:17:42;;;;;;;;;;;;;;;15.30;62.84;99094.25;4947996;29;19954;-74
2023/10/19 03:20:10;;;;;;;;;;;;;;;15.30;62.27;99095.06;4942584;29;19976;-74
2023/10/19 03:22:38;;;;;;;;;;;;;;;15.32;62.57;99083.84;4946320;29;19919;-74
2023/10/19 03:27:47;;;;;;;;;;;;;;;15.32;62.71;99086.56;4939656;29;19929;-74
2023/10/19 03:30:18;;;;;;;;;;;;;;;15.32;62.47;99087.38;4942066;29;20283;-74
2023/10/19 03:32:43;;;;;;;;;;;;;;;15.33;62.58;99085.47;4961774;28;19965;-74
2023/10/19 03:35:09;;;;;;;;;;;;;;;15.33;62.63;99077.31;4950687;29;19961;-74
2023/10/19 03:37:35;;;;;;;;;;;;;;;15.35;62.50;99083.22;4958046;28;19926;-74
2023/10/19 03:40:06;;;;;;;;;;;;;;;15.34;63.13;99085.13;4958881;28;19926;-74
2023/10/19 03:42:32;;;;;;;;;;;;;;;15.35;62.73;99084.03;4945167;29;20393;-74
2023/10/19 03:44:58;;;;;;;;;;;;;;;15.37;62.78;99083.69;4952253;28;20363;-74
2023/10/19 03:47:31;;;;;;;;;;;;;;;15.39;62.90;99077.94;4962996;28;19923;-75
2023/10/19 03:49:59;;;;;;;;;;;;;;;15.39;62.66;99067.88;4949582;29;20061;-74
2023/10/19 03:52:30;;;;;;;;;;;;;;;15.39;62.79;99076.03;4966677;28;20064;-74
2023/10/19 03:54:55;;;;;;;;;;;;;;;15.40;62.67;99083.09;4946896;29;19918;-74
2023/10/19 03:57:24;;;;;;;;;;;;;;;15.41;62.65;99075.72;4964458;28;19923;-74
2023/10/19 03:59:52;;;;;;;;;;;;;;;15.41;62.82;99076.53;4948778;28;19933;-74
2023/10/19 04:02:20;;;;;;;;;;;;;;;15.42;62.79;99075.41;4953095;29;19919;-74
2023/10/19 04:04:48;;;;;;;;;;;;;;;15.42;62.70;99069.16;4952300;28;19926;-74
2023/10/19 04:07:26;;;;;;;;;;;;;;;15.44;62.77;99075.09;4964811;28;20029;-74
2023/10/19 04:12:37;;;;;;;;;;;;;;;15.43;62.96;99070.78;4956235;28;19927;-75
2023/10/19 04:15:15;;;;;;;;;;;;;;;15.42;62.92;99072.69;4950281;29;19922;-74
2023/10/19 04:17:42;;;;;;;;;;;;;;;15.42;62.96;99078.13;4953222;29;19922;-74
2023/10/19 04:22:45;;;;;;;;;;;;;;;15.41;62.61;99068.34;4945681;29;19914;-74
2023/10/19 04:25:15;;;;;;;;;;;;;;;15.42;62.92;99075.41;4949633;29;20394;-74
2023/10/19 04:27:42;;;;;;;;;;;;;;;15.41;62.66;99071.06;4956657;28;20005;-75
2023/10/19 04:30:44;;;;;;;;;;;;;;;15.41;62.71;99073.81;4952266;29;19922;-75
2023/10/19 04:33:02;;;;;;;;;;;;;;;15.41;62.61;99076.53;4946460;29;20020;-75
2023/10/19 04:35:34;;;;;;;;;;;;;;;15.41;62.53;99073.81;4963441;28;20024;-75
2023/10/19 04:37:59;;;;;;;;;;;;;;;15.40;62.33;99069.50;4946384;29;19950;-74
2023/10/19 04:40:25;;;;;;;;;;;;;;;15.40;62.59;99068.69;4947256;28;20032;-74
2023/10/19 04:42:51;;;;;;;;;;;;;;;15.39;62.69;99081.47;4941912;29;19925;-75
2023/10/19 04:45:16;;;;;;;;;;;;;;;15.40;62.29;99074.94;4951536;28;20009;-75
2023/10/19 04:47:42;;;;;;;;;;;;;;;15.39;62.40;99070.59;4944956;29;20090;-76
2023/10/19 04:50:07;;;;;;;;;;;;;;;15.39;62.32;99072.50;4949572;29;19938;-75
2023/10/19 04:52:33;;;;;;;;;;;;;;;15.39;62.34;99073.31;4945371;28;19969;-75
2023/10/19 04:54:59;;;;;;;;;;;;;;;15.39;62.48;99077.94;4946919;29;19918;-76
2023/10/19 04:57:25;;;;;;;;;;;;;;;15.39;62.30;99078.75;4945418;29;19941;-76
2023/10/19 04:59:51;;;;;;;;;;;;;;;15.39;62.32;99077.94;4945109;28;19919;-76
2023/10/19 05:02:16;;;;;;;;;;;;;;;15.36;62.14;99073.94;4949990;29;19949;-74
2023/10/19 05:04:42;;;;;;;;;;;;;;;15.36;62.47;99082.09;4945311;28;20318;-76
2023/10/19 05:07:11;;;;;;;;;;;;;;;15.35;62.27;99092.19;4952828;29;19918;-75
2023/10/19 05:09:39;;;;;;;;;;;;;;;15.36;61.95;99085.63;4945350;28;19929;-74
2023/10/19 05:12:08;;;;;;;;;;;;;;;15.36;62.41;99077.47;4948191;29;19919;-73
2023/10/19 05:14:35;;;;;;;;;;;;;;;15.35;62.12;99077.78;4961318;28;19927;-74
2023/10/19 05:17:01;;;;;;;;;;;;;;;15.37;62.32;99083.69;4946440;29;19941;-74
2023/10/19 05:19:26;;;;;;;;;;;;;;;15.36;62.35;99088.34;4949422;28;19926;-74
2023/10/19 05:21:52;;;;;;;;;;;;;;;15.35;62.29;99086.75;4950524;29;19919;-75
2023/10/19 05:24:18;;;;;;;;;;;;;;;15.37;62.45;99089.13;4946366;29;20021;-73
2023/10/19 05:26:43;;;;;;;;;;;;;;;15.37;62.41;99086.41;4959362;28;20343;-74
2023/10/19 05:29:08;;;;;;;;;;;;;;;15.37;62.34;99089.13;4948881;29;20508;-75
2023/10/19 05:31:35;;;;;;;;;;;;;;;15.37;62.22;99086.41;4950390;29;19978;-76
2023/10/19 05:34:00;;;;;;;;;;;;;;;15.37;62.33;99097.31;4946361;29;19922;-74
2023/10/19 05:36:25;;;;;;;;;;;;;;;15.37;62.29;99094.56;4951369;29;19970;-75
2023/10/19 05:38:51;;;;;;;;;;;;;;;15.38;62.32;99089.97;4964263;28;19922;-76
2023/10/19 05:41:18;;;;;;;;;;;;;;;15.38;62.38;99092.69;4948997;28;19922;-75
2023/10/19 05:43:43;;;;;;;;;;;;;;;15.40;62.37;99090.47;4963116;28;19969;-75
2023/10/19 05:46:10;;;;;;;;;;;;;;;15.38;62.09;99096.19;4961986;28;19965;-75
2023/10/19 05:48:35;;;;;;;;;;;;;;;15.38;62.38;99100.84;4942843;29;20410;-75
2023/10/19 05:51:01;;;;;;;;;;;;;;;15.37;62.50;99089.13;4945439;29;20013;-75
2023/10/19 05:53:26;;;;;;;;;;;;;;;15.39;62.44;99100.50;4961471;28;19977;-76
2023/10/19 05:55:51;;;;;;;;;;;;;;;15.40;62.19;99098.63;4945558;28;20016;-75
2023/10/19 05:58:17;;;;;;;;;;;;;;;15.40;63.04;99093.97;4945295;28;20458;-71
2023/10/19 06:00:42;;;;;;;;;;;;;;;15.43;62.30;99100.72;4944111;29;20017;-74
2023/10/19 06:03:07;;;;;;;;;;;;;;;15.44;62.43;99099.56;4951880;28;19942;-75
2023/10/19 06:05:33;;;;;;;;;;;;;;;15.44;62.30;99097.66;4948517;29;19922;-75
2023/10/19 06:07:59;;;;;;;;;;;;;;;15.46;62.39;99100.88;4951144;28;20017;-71
2023/10/19 06:10:25;;;;;;;;;;;;;;;15.49;62.65;99092.06;4946135;28;19923;-74
2023/10/19 06:12:51;;;;;;;;;;;;;;;15.51;62.53;99103.44;4947647;29;20036;-75
2023/10/19 06:15:21;;;;;;;;;;;;;;;15.52;62.41;99099.63;4938451;29;19919;-74
2023/10/19 06:17:47;;;;;;;;;;;;;;;15.54;62.49;99102.00;4952879;29;19941;-74
2023/10/19 06:20:28;;;;;;;;;;;;;;;15.54;62.53;99110.97;4962599;28;19918;-73
2023/10/19 06:22:55;;;;;;;;;;;;;;;15.54;62.54;99110.97;4941138;28;20006;-73
2023/10/19 06:25:22;;;;;;;;;;;;;;;15.53;62.40;99112.09;4951853;29;19924;-73
2023/10/19 06:27:48;;;;;;;;;;;;;;;15.54;62.55;99113.69;4949577;29;19937;-73
2023/10/19 06:30:21;;;;;;;;;;;;;;;15.55;62.69;99115.31;4947852;29;19920;-73
2023/10/19 06:32:50;;;;;;;;;;;;;;;15.54;62.38;99121.84;4952542;29;19924;-72
2023/10/19 06:35:16;;;;;;;;;;;;;;;15.54;62.32;99126.50;4943564;28;20371;-74
2023/10/19 06:37:41;;;;;;;;;;;;;;;15.54;62.19;99130.00;4934934;29;19970;-74
2023/10/19 06:40:07;;;;;;;;;;;;;;;15.55;62.42;99136.28;4942960;29;19926;-73
2023/10/19 06:42:32;;;;;;;;;;;;;;;15.55;62.51;99133.56;4937137;29;19922;-74
2023/10/19 06:44:57;;;;;;;;;;;;;;;15.54;62.31;99135.47;4939161;29;19918;-74
2023/10/19 06:47:23;;;;;;;;;;;;;;;15.53;62.18;99136.59;4952358;29;19922;-72
2023/10/19 06:49:48;;;;;;;;;;;;;;;15.53;62.31;99139.31;4951378;29;20004;-73
2023/10/19 06:52:13;;;;;;;;;;;;;;;15.53;62.22;99135.78;4948169;28;20303;-74
2023/10/19 06:54:39;;;;;;;;;;;;;;;15.54;62.35;99132.75;4937492;29;20017;-74
2023/10/19 06:57:04;;;;;;;;;;;;;;;15.54;62.24;99129.22;4949790;28;19966;-74
2023/10/19 06:59:29;;;;;;;;;;;;;;;15.54;62.17;99134.66;4948502;29;20271;-74
2023/10/19 07:01:55;;;;;;;;;;;;;;;15.54;62.05;99134.66;4936072;29;19930;-74
2023/10/19 07:04:20;;;;;;;;;;;;;;;15.54;62.10;99138.19;4944245;28;19923;-73
2023/10/19 07:06:47;;;;;;;;;;;;;;;15.55;61.96;99136.28;4936793;29;20010;-73
2023/10/19 07:09:12;;;;;;;;;;;;;;;15.54;61.98;99131.94;4948925;28;19926;-72
2023/10/19 07:11:38;;;;;;;;;;;;;;;15.54;62.04;99130.00;4945241;29;19989;-74
2023/10/19 07:14:06;;;;;;;;;;;;;;;15.55;62.09;99128.91;4944868;28;19930;-74
2023/10/19 07:16:31;;;;;;;;;;;;;;;15.55;62.11;99123.47;4944971;29;19930;-72
2023/10/19 07:18:59;;;;;;;;;;;;;;;15.56;62.22;99133.22;4946692;29;19922;-72
2023/10/19 07:21:25;;;;;;;;;;;;;;;15.56;62.07;99127.78;4947000;28;20024;-73
2023/10/19 07:23:53;;;;;;;;;;;;;;;15.57;62.16;99123.97;4946398;29;19927;-74
2023/10/19 07:26:19;;;;;;;;;;;;;;;15.56;62.16;99124.28;4946018;29;20358;-72
2023/10/19 07:28:44;;;;;;;;;;;;;;;15.55;62.16;99120.75;4932894;29;19929;-74
2023/10/19 07:31:15;;;;;;;;;;;;;;;15.55;61.91;99120.75;4956511;28;19931;-72
2023/10/19 07:33:45;;;;;;;;;;;;;;;15.55;62.04;99128.13;4946669;28;19930;-73
2023/10/19 07:36:18;;;;;;;;;;;;;;;15.56;62.12;99118.81;4945015;28;19923;-73
2023/10/19 07:38:45;;;;;;;;;;;;;;;15.58;62.20;99127.47;4947342;29;19929;-73
2023/10/19 07:41:10;;;;;;;;;;;;;;;15.58;62.25;99120.13;4932439;29;19929;-72
2023/10/19 07:43:36;;;;;;;;;;;;;;;15.59;62.34;99118.97;4945326;29;19922;-73
2023/10/19 07:46:01;;;;;;;;;;;;;;;15.61;62.18;99110.53;4945440;29;20074;-72
2023/10/19 07:48:27;;;;;;;;;;;;;;;15.63;62.20;99112.94;4944963;29;20068;-74
2023/10/19 07:50:53;;;;;;;;;;;;;;;15.63;62.16;99112.94;4945982;28;19922;-72
2023/10/19 07:53:18;;;;;;;;;;;;;;;15.64;61.80;99114.53;4935968;29;19927;-73
2023/10/19 07:55:43;;;;;;;;;;;;;;;15.64;62.13;99119.97;4944100;29;19930;-75
2023/10/19 07:58:10;;;;;;;;;;;;;;;15.65;62.22;99116.13;4944466;29;19922;-73
2023/10/19 08:00:35;;;;;;;;;;;;;;;15.65;62.02;99113.41;4947978;29;20027;-73
2023/10/19 08:03:01;;;;;;;;;;;;;;;15.66;62.04;99106.84;4950942;28;20022;-75
2023/10/19 08:05:27;;;;;;;;;;;;;;;15.67;62.10;99114.69;4950666;28;20061;-74
2023/10/19 08:07:53;;;;;;;;;;;;;;;15.69;62.28;99109.75;4961523;28;20008;-75
2023/10/19 08:10:19;;;;;;;;;;;;;;;15.71;62.40;99112.97;4938122;29;20466;-74
2023/10/19 08:12:47;;;;;;;;;;;;;;;15.73;62.43;99105.28;4932152;29;20004;-76
2023/10/19 08:15:14;;;;;;;;;;;;;;;15.73;62.32;99101.78;4947421;29;20358;-75
2023/10/19 08:17:41;;;;;;;;;;;;;;;15.74;62.45;99097.94;4938055;29;20311;-76
2023/10/19 08:20:09;;;;;;;;;;;;;;;15.75;62.24;99091.38;4945724;29;20005;-76
2023/10/19 08:22:36;;;;;;;;;;;;;;;15.78;62.25;99096.19;4948274;29;20279;-76
2023/10/19 08:25:03;;;;;;;;;;;;;;;15.79;61.99;99104.03;4940940;29;20013;-75
2023/10/19 08:27:29;;;;;;;;;;;;;;;15.80;62.11;99104.84;4949481;28;19918;-74
2023/10/19 08:29:55;;;;;;;;;;;;;;;15.81;62.47;99106.44;4954831;28;19928;-76
2023/10/19 08:32:20;;;;;;;;;;;;;;;15.82;62.24;99107.22;4964968;28;19926;-77
2023/10/19 08:34:46;;;;;;;;;;;;;;;15.83;62.23;99109.66;4949713;29;19926;-76
2023/10/19 08:37:11;;;;;;;;;;;;;;;15.84;62.24;99122.13;4944879;29;19918;-75
2023/10/19 08:39:36;;;;;;;;;;;;;;;15.85;62.59;99120.19;4962709;28;19937;-74
2023/10/19 08:42:05;;;;;;;;;;;;;;;15.85;62.61;99112.84;4938776;29;20339;-75
2023/10/19 08:44:30;;;;;;;;;;;;;;;15.86;62.71;99114.44;4935837;29;19938;-75
2023/10/19 08:46:57;;;;;;;;;;;;;;;15.88;62.48;99106.78;4950420;29;19965;-74
2023/10/19 08:49:22;;;;;;;;;;;;;;;15.89;62.86;99108.38;4943061;29;20407;-74
2023/10/19 08:51:48;;;;;;;;;;;;;;;15.91;62.59;99105.34;4948734;28;19954;-75
2023/10/19 08:54:14;;;;;;;;;;;;;;;15.91;62.74;99106.13;4948018;28;19922;-74
2023/10/19 08:56:41;;;;;;;;;;;;;;;15.93;62.71;99109.34;4941628;29;20157;-75
2023/10/19 08:59:07;;;;;;;;;;;;;;;15.96;62.55;99102.47;4933946;29;20286;-74
2023/10/19 09:01:35;;;;;;;;;;;;;;;15.96;62.62;99097.00;4959431;28;19923;-74
2023/10/19 09:04:00;;;;;;;;;;;;;;;15.98;62.83;99089.34;4948741;29;20280;-75
2023/10/19 09:06:28;;;;;;;;;;;;;;;15.99;62.73;99080.81;4934865;29;19922;-75
2023/10/19 09:08:53;;;;;;;;;;;;;;;16.01;62.96;99078.59;4955447;28;19919;-75
2023/10/19 09:11:20;;;;;;;;;;;;;;;16.04;62.54;99062.75;4945271;29;20294;-75
2023/10/19 09:13:49;;;;;;;;;;;;;;;16.04;62.61;99063.53;4951364;29;19933;-75
2023/10/19 09:16:21;;;;;;;;;;;;;;;16.07;63.09;99059.38;4953485;28;19929;-74
2023/10/19 09:18:47;;;;;;;;;;;;;;;16.10;63.13;99069.63;4949879;28;19961;-74
2023/10/19 09:21:23;;;;;;;;;;;;;;;16.10;62.91;99067.72;4947438;28;19962;-74
2023/10/19 09:23:49;;;;;;;;;;;;;;;16.10;62.84;99066.88;4949677;29;20001;-73
2023/10/19 09:26:15;;;;;;;;;;;;;;;16.11;63.05;99068.50;4939595;29;20025;-74
2023/10/19 09:28:40;;;;;;;;;;;;;;;16.14;63.10;99062.41;4948932;29;20028;-75
2023/10/19 09:31:09;;;;;;;;;;;;;;;16.15;63.06;99064.81;4948631;28;19926;-74
2023/10/19 09:33:35;;;;;;;;;;;;;;;16.17;63.00;99064.50;4949516;29;19918;-74
2023/10/19 09:36:01;;;;;;;;;;;;;;;16.19;63.21;99054.88;4954678;28;19926;-74
2023/10/19 09:38:26;;;;;;;;;;;;;;;16.21;63.05;99055.38;4944946;28;19923;-74
2023/10/19 09:40:54;;;;;;;;;;;;;;;16.26;63.06;99056.34;4949246;29;19919;-73
2023/10/19 09:43:41;;;;;;;;;;;;;;;16.29;63.14;99052.97;4937301;29;19918;-73
2023/10/19 09:46:07;;;;;;;;;;;;;;;16.31;63.29;99040.63;4944218;29;19926;-74
2023/10/19 09:48:36;;;;;;;;;;;;;;;16.34;62.90;99047.34;4947558;29;19937;-77
2023/10/19 09:51:02;;;;;;;;;;;;;;;16.36;63.10;99054.06;4945547;28;19966;-75
2023/10/19 09:53:29;;;;;;;;;;;;;;;16.38;63.32;99060.00;4940462;29;19923;-73
2023/10/19 09:55:57;;;;;;;;;;;;;;;16.42;63.33;99060.16;4946929;29;20014;-75
2023/10/19 09:58:31;;;;;;;;;;;;;;;16.46;63.27;99057.59;4944804;28;20337;-75
2023/10/19 10:01:02;;;;;;;;;;;;;;;16.48;63.43;99047.16;4955926;28;19918;-71
2023/10/19 10:03:47;;;;;;;;;;;;;;;16.51;63.50;99041.88;4937356;28;19915;-75
2023/10/19 10:06:14;;;;;;;;;;;;;;;16.53;63.15;99038.81;4940722;29;19981;-75
2023/10/19 10:08:43;;;;;;;;;;;;;;;16.54;63.30;99046.66;4949821;29;19965;-74
2023/10/19 10:11:18;;;;;;;;;;;;;;;16.56;63.22;99044.41;4935745;29;19918;-74
2023/10/19 10:13:45;;;;;;;;;;;;;;;16.57;63.19;99059.63;4945241;29;19918;-77
2023/10/19 10:16:12;;;;;;;;;;;;;;;16.60;63.60;99055.47;4948619;29;20359;-73
2023/10/19 10:18:40;;;;;;;;;;;;;;;16.61;63.19;99060.59;4947643;28;19929;-74
2023/10/19 10:21:16;;;;;;;;;;;;;;;16.62;63.37;99047.78;4950410;29;20393;-74
2023/10/19 10:24:03;;;;;;;;;;;;;;;16.62;63.29;99045.84;4948357;29;20342;-75
2023/10/19 10:26:36;;;;;;;;;;;;;;;16.65;63.56;99066.19;4951167;28;20009;-74
2023/10/19 10:29:30;;;;;;;;;;;;;;;16.67;63.44;99058.50;4939812;28;21392;-74
2023/10/19 10:31:58;;;;;;;;;;;;;;;16.70;63.06;99055.13;4944370;29;19922;-74
2023/10/19 10:34:35;;;;;;;;;;;;;;;16.70;63.44;99062.50;4939044;29;20049;-74
2023/10/19 10:37:02;;;;;;;;;;;;;;;16.72;63.44;99063.00;4936476;29;20065;-74
2023/10/19 10:39:28;;;;;;;;;;;;;;;16.73;63.24;99064.56;4949892;29;19918;-74
2023/10/19 10:41:57;;;;;;;;;;;;;;;16.77;63.14;99068.28;4940670;29;19922;-75
2023/10/19 10:44:35;;;;;;;;;;;;;;;16.79;63.53;99071.50;4949267;29;19923;-75
2023/10/19 10:47:00;;;;;;;;;;;;;;;16.83;63.19;99058.81;4966825;28;19918;-74
2023/10/19 10:49:25;;;;;;;;;;;;;;;16.86;63.27;99053.50;4950025;28;19930;-74
2023/10/19 10:51:53;;;;;;;;;;;;;;;16.89;63.56;99062.97;4933499;29;19918;-74
2023/10/19 10:54:21;;;;;;;;;;;;;;;16.91;63.23;99055.28;4939934;29;20013;-74
2023/10/19 10:56:46;;;;;;;;;;;;;;;16.94;63.48;99057.34;4947292;29;20013;-74
2023/10/19 10:59:12;;;;;;;;;;;;;;;16.96;63.24;99044.19;4936693;29;20058;-73
2023/10/19 11:01:38;;;;;;;;;;;;;;;17.01;63.37;99044.00;4946438;29;19918;-73
2023/10/19 11:04:15;;;;;;;;;;;;;;;17.03;63.40;99033.56;4952599;29;19921;-74
2023/10/19 11:06:47;;;;;;;;;;;;;;;17.05;63.52;99034.03;4934013;29;20942;-74
2023/10/19 11:09:14;;;;;;;;;;;;;;;17.08;63.57;99033.38;4950600;29;19925;-74
2023/10/19 11:11:40;;;;;;;;;;;;;;;17.11;63.40;99022.94;4937715;29;19919;-76
2023/10/19 11:14:09;;;;;;;;;;;;;;;17.12;63.39;99025.34;4948957;29;19922;-76
2023/10/19 11:16:34;;;;;;;;;;;;;;;17.15;63.17;99023.88;4947674;29;20296;-73
2023/10/19 11:18:59;;;;;;;;;;;;;;;17.18;63.33;99017.75;4947302;29;20037;-75
2023/10/19 11:21:25;;;;;;;;;;;;;;;17.19;63.54;99009.25;4952015;29;19922;-78
2023/10/19 11:23:53;;;;;;;;;;;;;;;17.22;63.60;99007.78;4947667;29;19962;-77
2023/10/19 11:26:22;;;;;;;;;;;;;;;17.24;63.00;99011.78;4947641;29;20383;-76
2023/10/19 11:28:56;;;;;;;;;;;;;;;17.24;63.55;99011.78;4939985;29;19942;-76
2023/10/19 11:31:22;;;;;;;;;;;;;;;17.26;63.11;99004.09;4943175;28;20486;-76
2023/10/19 11:33:50;;;;;;;;;;;;;;;17.28;63.09;98998.28;4946105;29;20029;-74
2023/10/19 11:36:20;;;;;;;;;;;;;;;17.29;63.35;98999.91;4944312;29;19918;-74
2023/10/19 11:38:49;;;;;;;;;;;;;;;17.29;63.02;98995.22;4949455;29;19954;-77
2023/10/19 11:41:14;;;;;;;;;;;;;;;17.31;63.09;99000.34;4949704;28;19930;-75
2023/10/19 11:43:40;;;;;;;;;;;;;;;17.30;63.25;98987.84;4949015;29;20274;-77
2023/10/19 11:46:06;;;;;;;;;;;;;;;17.32;63.32;98991.03;4950279;29;20282;-76
2023/10/19 11:48:32;;;;;;;;;;;;;;;17.36;62.91;98993.91;4947935;29;20319;-77
2023/10/19 11:50:58;;;;;;;;;;;;;;;17.38;62.95;99000.63;4951692;29;19918;-75
2023/10/19 11:53:23;;;;;;;;;;;;;;;17.40;63.12;98994.84;4946453;28;20060;-76
2023/10/19 11:55:48;;;;;;;;;;;;;;;17.41;63.14;98986.34;4947213;29;19969;-76
2023/10/19 11:58:14;;;;;;;;;;;;;;;17.42;62.91;98990.66;4950453;29;19933;-76
2023/10/19 12:00:41;;;;;;;;;;;;;;;17.45;62.91;98989.19;4950839;28;21279;-77
2023/10/19 12:03:06;;;;;;;;;;;;;;;17.46;62.74;98993.50;4948185;28;19919;-76
2023/10/19 12:05:31;;;;;;;;;;;;;;;17.47;63.12;98986.94;4936321;29;19929;-77
2023/10/19 12:07:57;;;;;;;;;;;;;;;17.49;62.75;98990.94;4939959;29;19950;-77
2023/10/19 12:10:29;;;;;;;;;;;;;;;17.49;62.85;98990.94;4947570;29;19965;-77
2023/10/19 12:12:56;;;;;;;;;;;;;;;17.51;63.02;98982.41;4949032;28;19926;-79
2023/10/19 12:15:22;;;;;;;;;;;;;;;17.53;62.46;98988.34;4948886;29;19948;-75
2023/10/19 12:17:49;;;;;;;;;;;;;;;17.52;63.04;98986.75;4945124;28;19918;-76
2023/10/19 12:20:14;;;;;;;;;;;;;;;17.53;63.13;98982.88;4936692;29;19961;-80
2023/10/19 12:22:40;;;;;;;;;;;;;;;17.52;62.75;98976.63;4964351;28;20378;-76
2023/10/19 12:25:05;;;;;;;;;;;;;;;17.53;63.03;98970.03;4954296;28;19922;-74
2023/10/19 12:27:31;;;;;;;;;;;;;;;17.55;62.95;98975.16;4947173;29;19922;-78
2023/10/19 12:29:57;;;;;;;;;;;;;;;17.57;62.60;98975.63;4952518;29;19922;-76
2023/10/19 12:32:24;;;;;;;;;;;;;;;17.59;62.69;98983.47;4952952;29;20286;-77
2023/10/19 12:34:53;;;;;;;;;;;;;;;17.61;62.88;98973.03;4965405;28;19970;-76
2023/10/19 12:37:18;;;;;;;;;;;;;;;17.64;62.49;98972.34;4947751;28;19923;-76
2023/10/19 12:39:50;;;;;;;;;;;;;;;17.63;62.86;98973.50;4944157;29;19925;-75
2023/10/19 12:42:16;;;;;;;;;;;;;;;17.62;62.64;98972.69;4936151;29;20354;-75
2023/10/19 12:44:41;;;;;;;;;;;;;;;17.65;62.71;98974.75;4938766;29;19966;-77
2023/10/19 12:47:12;;;;;;;;;;;;;;;17.66;62.80;98967.34;4944215;29;19925;-75
2023/10/19 12:49:39;;;;;;;;;;;;;;;17.68;62.61;98963.16;4934364;29;20001;-75
2023/10/19 12:52:04;;;;;;;;;;;;;;;17.68;62.83;98957.69;4956768;28;19926;-75
2023/10/19 12:54:29;;;;;;;;;;;;;;;17.70;62.68;98943.72;4951007;28;19922;-76
2023/10/19 12:56:55;;;;;;;;;;;;;;;17.71;62.87;98929.75;4953538;29;19924;-77
2023/10/19 12:59:20;;;;;;;;;;;;;;;17.72;62.75;98931.34;4947869;28;19961;-79
2023/10/19 13:01:48;;;;;;;;;;;;;;;17.73;62.91;98938.38;4946161;29;20022;-74
2023/10/19 13:04:16;;;;;;;;;;;;;;;17.74;62.99;98934.53;4951067;29;19926;-76